createdAt,value
2023-03-24T00:00:24.843Z,18.20
2023-03-24T00:03:02.579Z,17.75
2023-03-24T00:05:50.848Z,17.30
2023-03-24T00:08:30.866Z,16.50
2023-03-24T00:11:18.865Z,16.90
2023-03-24T00:13:58.834Z,18.10
2023-03-24T00:16:48.865Z,17.60
2023-03-24T00:19:30.852Z,17.98
2023-03-24T00:22:27.852Z,16.80
2023-03-24T00:25:17.868Z,16.63
2023-03-24T00:27:58.866Z,18.15
2023-03-24T00:30:48.959Z,18.70
2023-03-24T00:33:28.915Z,17.40
2023-03-24T00:36:20.937Z,17.50
2023-03-24T00:39:05.715Z,17.23
2023-03-24T00:42:02.883Z,17.77
2023-03-24T00:44:51.899Z,18.25
2023-03-24T00:47:32.837Z,18.00
2023-03-24T00:50:23.882Z,17.80
2023-03-24T00:53:04.894Z,18.58
2023-03-24T00:55:55.892Z,17.05
2023-03-24T00:58:40.868Z,17.95
2023-03-24T01:01:28.855Z,18.25
2023-03-24T01:04:03.026Z,18.50
2023-03-24T01:06:51.873Z,17.52
2023-03-24T01:09:25.069Z,17.55
2023-03-24T01:12:11.891Z,15.85
2023-03-24T01:14:44.980Z,16.88
2023-03-24T01:17:31.907Z,16.50
2023-03-24T01:20:14.881Z,15.70
2023-03-24T01:23:08.891Z,15.82
2023-03-24T01:25:57.926Z,16.75
2023-03-24T01:28:32.208Z,16.38
2023-03-24T01:31:18.892Z,16.45
2023-03-24T01:33:51.974Z,16.75
2023-03-24T01:36:38.901Z,16.50
2023-03-24T01:39:15.550Z,17.10
2023-03-24T01:42:02.885Z,16.05
2023-03-24T01:44:36.030Z,15.02
2023-03-24T01:47:23.968Z,16.80
2023-03-24T01:50:03.178Z,16.25
2023-03-24T01:52:49.886Z,14.93
2023-03-24T01:55:25.017Z,15.85
2023-03-24T01:58:14.030Z,16.15
2023-03-24T02:00:48.062Z,15.20
2023-03-24T02:03:40.939Z,14.77
2023-03-24T02:06:21.946Z,15.63
2023-03-24T02:09:16.902Z,16.25
2023-03-24T02:12:03.907Z,16.10
2023-03-24T02:14:37.033Z,16.13
2023-03-24T02:17:27.940Z,16.27
2023-03-24T02:20:17.169Z,16.27
2023-03-24T02:23:23.954Z,15.73
2023-03-24T02:26:36.030Z,15.80
2023-03-24T02:29:25.918Z,16.55
2023-03-24T02:32:08.908Z,16.25
2023-03-24T02:35:31.914Z,14.90
2023-03-24T02:38:47.923Z,14.57
2023-03-24T02:42:03.041Z,15.02
2023-03-24T02:45:13.947Z,15.82
2023-03-24T02:48:25.913Z,15.07
2023-03-24T02:51:41.146Z,15.45
2023-03-24T02:54:49.060Z,14.50
2023-03-24T02:57:45.904Z,14.65
2023-03-24T03:00:49.992Z,15.63
2023-03-24T03:03:45.954Z,16.02
2023-03-24T03:06:22.238Z,16.83
2023-03-24T03:09:14.985Z,14.82
2023-03-24T03:11:59.942Z,17.67
2023-03-24T03:15:01.942Z,16.27
2023-03-24T03:18:01.957Z,15.32
2023-03-24T03:20:56.962Z,16.05
2023-03-24T03:23:36.516Z,15.65
2023-03-24T03:26:29.959Z,16.48
2023-03-24T03:29:16.046Z,16.45
2023-03-24T03:32:14.012Z,16.88
2023-03-24T03:34:57.145Z,16.23
2023-03-24T03:38:14.945Z,16.15
2023-03-24T03:40:56.128Z,16.42
2023-03-24T03:43:42.965Z,16.67
2023-03-24T03:46:16.597Z,16.98
2023-03-24T03:49:02.953Z,15.60
2023-03-24T03:51:43.122Z,16.65
2023-03-24T03:54:32.946Z,17.65
2023-03-24T03:57:07.131Z,16.02
2023-03-24T03:59:54.096Z,16.75
2023-03-24T04:02:39.183Z,16.50
2023-03-24T04:05:43.153Z,15.90
2023-03-24T04:08:50.950Z,16.15
2023-03-24T04:11:53.953Z,15.65
2023-03-24T04:14:52.951Z,16.90
2023-03-24T04:18:05.103Z,16.25
2023-03-24T04:21:04.123Z,16.27
2023-03-24T04:24:33.993Z,15.38
2023-03-24T04:27:52.954Z,15.70
2023-03-24T04:30:48.975Z,16.73
2023-03-24T04:33:39.182Z,16.00
2023-03-24T04:36:38.975Z,16.92
2023-03-24T04:39:12.862Z,17.45
2023-03-24T04:42:03.961Z,17.67
2023-03-24T04:44:47.971Z,18.13
2023-03-24T04:47:46.008Z,16.83
2023-03-24T04:50:44.969Z,16.50
2023-03-24T04:53:18.208Z,16.90
2023-03-24T04:56:36.104Z,17.20
2023-03-24T04:59:09.243Z,16.88
2023-03-24T05:01:58.967Z,16.25
2023-03-24T05:04:43.002Z,16.70
2023-03-24T05:07:36.961Z,16.40
2023-03-24T05:10:24.997Z,15.07
2023-03-24T05:13:04.979Z,16.45
2023-03-24T05:15:59.001Z,16.45
2023-03-24T05:18:45.988Z,15.68
2023-03-24T05:21:26.962Z,15.75
2023-03-24T05:24:20.978Z,15.75
2023-03-24T05:27:07.989Z,15.60
2023-03-24T05:29:41.100Z,15.35
2023-03-24T05:32:28.005Z,14.90
2023-03-24T05:35:07.996Z,15.43
2023-03-24T05:38:02.011Z,15.25
2023-03-24T05:40:48.985Z,16.63
2023-03-24T05:43:22.084Z,16.77
2023-03-24T05:46:09.061Z,15.65
2023-03-24T05:48:49.008Z,14.88
2023-03-24T05:51:42.997Z,16.77
2023-03-24T05:54:36.986Z,15.77
2023-03-24T05:57:24.986Z,16.88
2023-03-24T05:59:58.207Z,17.88
2023-03-24T06:02:46.116Z,17.08
2023-03-24T06:05:20.447Z,16.38
2023-03-24T06:08:08.007Z,17.45
2023-03-24T06:10:41.158Z,19.08
2023-03-24T06:13:28.002Z,18.00
2023-03-24T06:16:03.610Z,19.48
2023-03-24T06:18:59.026Z,18.65
2023-03-24T06:21:39.016Z,17.55
2023-03-24T06:24:26.021Z,20.88
2023-03-24T06:27:10.010Z,42.05
2023-03-24T06:29:57.011Z,34.88
2023-03-24T06:32:31.186Z,21.60
2023-03-24T06:35:18.063Z,18.52
2023-03-24T06:37:58.014Z,18.27
2023-03-24T06:40:52.039Z,17.23
2023-03-24T06:43:46.013Z,17.05
2023-03-24T06:46:33.060Z,18.10
2023-03-24T06:49:13.020Z,17.92
2023-03-24T06:52:01.012Z,17.15
2023-03-24T06:54:34.152Z,20.58
2023-03-24T06:57:21.042Z,29.15
2023-03-24T07:00:01.045Z,22.65
2023-03-24T07:02:55.076Z,30.35
2023-03-24T07:05:50.027Z,25.35
2023-03-24T07:08:38.007Z,20.30
2023-03-24T07:11:32.029Z,20.35
2023-03-24T07:14:19.057Z,19.40
2023-03-24T07:16:59.060Z,18.98
2023-03-24T07:19:53.077Z,17.77
2023-03-24T07:22:47.046Z,19.45
2023-03-24T07:25:41.034Z,17.95
2023-03-24T07:28:35.049Z,19.77
2023-03-24T07:31:22.081Z,21.08
2023-03-24T07:34:02.193Z,21.95
2023-03-24T07:36:49.035Z,27.90
2023-03-24T07:39:22.213Z,23.83
2023-03-24T07:42:10.998Z,23.38
2023-03-24T07:44:52.046Z,21.60
2023-03-24T07:47:46.077Z,21.02
2023-03-24T07:50:40.044Z,25.48
2023-03-24T07:53:34.157Z,37.15
2023-03-24T07:56:22.064Z,30.95
2023-03-24T07:58:55.235Z,27.95
2023-03-24T08:01:44.149Z,22.75
2023-03-24T08:04:20.272Z,22.73
2023-03-24T08:07:07.075Z,25.27
2023-03-24T08:09:40.148Z,21.83
2023-03-24T08:12:27.072Z,19.55
2023-03-24T08:15:07.062Z,19.77
2023-03-24T08:18:03.089Z,18.00
2023-03-24T08:20:57.112Z,18.30
2023-03-24T08:23:51.056Z,20.65
2023-03-24T08:26:42.093Z,23.05
2023-03-24T08:29:25.077Z,20.48
2023-03-24T08:32:19.074Z,19.45
2023-03-24T08:35:06.101Z,19.90
2023-03-24T08:37:39.190Z,20.27
2023-03-24T08:40:30.077Z,20.45
2023-03-24T08:43:08.557Z,20.50
2023-03-24T08:45:55.109Z,17.33
2023-03-24T08:48:35.082Z,17.10
2023-03-24T08:51:31.148Z,19.90
2023-03-24T08:54:19.103Z,16.48
2023-03-24T08:56:52.265Z,17.50
2023-03-24T08:59:39.123Z,18.80
2023-03-24T09:02:12.216Z,18.25
2023-03-24T09:05:01.127Z,17.55
2023-03-24T09:07:34.238Z,17.67
2023-03-24T09:10:22.122Z,17.75
2023-03-24T09:13:02.084Z,17.05
2023-03-24T09:16:01.075Z,17.75
2023-03-24T09:18:55.101Z,18.17
2023-03-24T09:21:49.073Z,17.45
2023-03-24T09:24:43.115Z,18.00
2023-03-24T09:27:32.934Z,17.80
2023-03-24T09:30:13.093Z,17.15
2023-03-24T09:33:07.142Z,17.27
2023-03-24T09:36:00.562Z,17.52
2023-03-24T09:38:42.095Z,15.13
2023-03-24T09:41:44.089Z,15.90
2023-03-24T09:44:55.121Z,16.45
2023-03-24T09:47:52.133Z,18.63
2023-03-24T09:51:12.239Z,18.85
2023-03-24T09:54:06.109Z,15.55
2023-03-24T09:56:54.138Z,16.75
2023-03-24T09:59:45.152Z,17.77
2023-03-24T10:02:37.172Z,15.43
2023-03-24T10:05:19.249Z,15.98
2023-03-24T10:08:29.447Z,16.33
2023-03-24T10:11:31.115Z,16.77
2023-03-24T10:14:42.124Z,16.98
2023-03-24T10:17:59.283Z,16.23
2023-03-24T10:20:54.141Z,15.27
2023-03-24T10:23:43.290Z,15.55
2023-03-24T10:26:44.250Z,16.55
2023-03-24T10:29:36.404Z,15.50
2023-03-24T10:32:27.160Z,15.68
2023-03-24T10:35:16.168Z,17.38
2023-03-24T10:38:08.125Z,17.85
2023-03-24T10:40:48.124Z,15.35
2023-03-24T10:43:43.174Z,19.38
2023-03-24T10:46:35.190Z,16.40
2023-03-24T10:49:42.149Z,15.60
2023-03-24T10:52:38.089Z,16.25
2023-03-24T10:55:28.169Z,16.02
2023-03-24T10:58:04.271Z,18.05
2023-03-24T11:00:52.267Z,17.17
2023-03-24T11:03:36.275Z,16.42
2023-03-24T11:06:26.140Z,16.85
2023-03-24T11:09:33.163Z,16.50
2023-03-24T11:12:41.151Z,17.60
2023-03-24T11:15:37.244Z,16.50
2023-03-24T11:18:19.543Z,16.27
2023-03-24T11:21:11.153Z,15.25
2023-03-24T11:23:45.706Z,16.38
2023-03-24T11:26:42.224Z,15.52
2023-03-24T11:29:28.074Z,15.80
2023-03-24T11:32:36.264Z,15.13
2023-03-24T11:35:32.155Z,15.88
2023-03-24T11:38:41.171Z,15.52
2023-03-24T11:41:28.166Z,15.52
2023-03-24T11:44:37.214Z,14.95
2023-03-24T11:47:31.250Z,14.80
2023-03-24T11:50:21.253Z,15.55
2023-03-24T11:53:30.230Z,17.15
2023-03-24T11:56:16.679Z,16.83
2023-03-24T11:59:30.261Z,15.95
2023-03-24T12:02:22.292Z,15.63
2023-03-24T12:05:31.199Z,15.88
2023-03-24T12:08:40.248Z,16.70
2023-03-24T12:11:33.224Z,14.75
2023-03-24T12:14:16.233Z,15.70
2023-03-24T12:17:21.236Z,17.23
2023-03-24T12:20:16.374Z,15.98
2023-03-24T12:23:47.246Z,16.60
2023-03-24T12:26:45.255Z,16.20
2023-03-24T12:30:09.197Z,16.13
2023-03-24T12:33:45.285Z,16.40
2023-03-24T12:36:31.885Z,15.90
2023-03-24T12:39:23.308Z,14.48
2023-03-24T12:42:12.711Z,14.80
2023-03-24T12:45:14.240Z,15.25
2023-03-24T12:48:15.517Z,14.05
2023-03-24T12:51:20.229Z,14.48
2023-03-24T12:54:03.861Z,13.73
2023-03-24T12:57:06.324Z,14.88
2023-03-24T13:00:19.334Z,14.88
2023-03-24T13:03:38.230Z,14.27
2023-03-24T13:06:22.447Z,13.77
2023-03-24T13:09:18.237Z,14.18
2023-03-24T13:11:57.431Z,15.63
2023-03-24T13:15:14.237Z,16.40
2023-03-24T13:18:07.066Z,20.05
2023-03-24T13:21:18.246Z,16.65
2023-03-24T13:24:15.580Z,16.45
2023-03-24T13:27:13.246Z,17.02
2023-03-24T13:30:02.396Z,20.63
2023-03-24T13:32:58.306Z,13.85
2023-03-24T13:35:48.233Z,16.55
2023-03-24T13:38:45.279Z,15.73
2023-03-24T13:41:31.270Z,17.08
2023-03-24T13:44:32.239Z,15.70
2023-03-24T13:47:07.427Z,15.63
2023-03-24T13:50:20.476Z,15.38
2023-03-24T13:53:10.974Z,15.13
2023-03-24T13:56:02.296Z,17.80
2023-03-24T13:59:12.385Z,19.15
2023-03-24T14:02:24.531Z,18.13
2023-03-24T14:05:34.417Z,22.23
2023-03-24T14:08:41.269Z,17.77
2023-03-24T14:11:49.306Z,18.88
2023-03-24T14:14:46.149Z,18.77
2023-03-24T14:17:33.454Z,18.45
2023-03-24T14:20:10.668Z,19.05
2023-03-24T14:22:58.266Z,18.65
2023-03-24T14:25:37.353Z,20.15
2023-03-24T14:28:34.258Z,22.05
2023-03-24T14:31:42.391Z,25.38
2023-03-24T14:34:32.267Z,21.75
2023-03-24T14:37:09.530Z,20.65
2023-03-24T14:39:57.381Z,21.48
2023-03-24T14:42:46.338Z,20.60
2023-03-24T14:45:33.508Z,22.55
2023-03-24T14:48:16.266Z,23.92
2023-03-24T14:51:17.319Z,20.15
2023-03-24T14:54:05.351Z,17.92
2023-03-24T14:56:47.154Z,17.98
2023-03-24T14:59:38.356Z,23.27
2023-03-24T15:02:30.450Z,23.50
2023-03-24T15:05:27.395Z,21.42
2023-03-24T15:08:21.347Z,20.10
2023-03-24T15:11:12.327Z,20.65
2023-03-24T15:13:59.397Z,25.40
2023-03-24T15:16:46.339Z,22.45
2023-03-24T15:19:29.411Z,19.00
2023-03-24T15:22:20.398Z,18.55
2023-03-24T15:25:03.317Z,18.88
2023-03-24T15:28:04.334Z,19.45
2023-03-24T15:30:51.546Z,19.08
2023-03-24T15:33:26.180Z,18.48
2023-03-24T15:36:21.317Z,18.88
2023-03-24T15:39:00.196Z,20.52
2023-03-24T15:41:47.383Z,20.35
2023-03-24T15:44:26.472Z,17.88
2023-03-24T15:47:29.716Z,17.40
2023-03-24T15:50:07.610Z,18.83
2023-03-24T15:53:07.910Z,18.73
2023-03-24T15:55:43.461Z,18.67
2023-03-24T15:58:35.360Z,18.33
2023-03-24T16:01:09.742Z,19.70
2023-03-24T16:03:57.475Z,19.05
2023-03-24T16:06:44.377Z,18.10
2023-03-24T16:09:38.401Z,20.88
2023-03-24T16:12:25.358Z,19.60
2023-03-24T16:14:58.618Z,18.45
2023-03-24T16:17:45.430Z,19.77
2023-03-24T16:20:28.433Z,19.17
2023-03-24T16:23:20.154Z,19.85
2023-03-24T16:25:53.440Z,18.50
2023-03-24T16:28:42.367Z,19.20
2023-03-24T16:31:25.558Z,18.98
2023-03-24T16:34:14.133Z,16.52
2023-03-24T16:36:48.451Z,19.13
2023-03-24T16:39:37.398Z,17.50
2023-03-24T16:42:10.654Z,18.58
2023-03-24T16:44:58.342Z,18.30
2023-03-24T16:47:31.620Z,19.02
2023-03-24T16:50:47.559Z,21.35
2023-03-24T16:53:30.389Z,19.52
2023-03-24T16:56:28.516Z,26.30
2023-03-24T16:59:15.409Z,24.73
2023-03-24T17:01:58.404Z,21.88
2023-03-24T17:04:53.399Z,19.73
2023-03-24T17:07:47.653Z,24.25
2023-03-24T17:10:42.383Z,21.35
2023-03-24T17:13:32.390Z,18.55
2023-03-24T17:16:05.496Z,20.77
2023-03-24T17:18:52.395Z,21.55
2023-03-24T17:21:26.458Z,20.95
2023-03-24T17:24:20.383Z,22.25
2023-03-24T17:27:14.386Z,21.27
2023-03-24T17:30:01.377Z,20.38
2023-03-24T17:32:36.579Z,24.35
2023-03-24T17:35:26.407Z,22.13
2023-03-24T17:37:59.496Z,21.95
2023-03-24T17:40:48.829Z,21.83
2023-03-24T17:43:22.475Z,22.58
2023-03-24T17:46:10.448Z,22.10
2023-03-24T17:48:50.384Z,21.85
2023-03-24T17:51:44.386Z,24.55
2023-03-24T17:54:32.390Z,24.45
2023-03-24T17:57:05.820Z,23.35
2023-03-24T17:59:53.156Z,23.67
2023-03-24T18:02:33.404Z,24.48
2023-03-24T18:05:27.398Z,23.25
2023-03-24T18:08:14.386Z,23.60
2023-03-24T18:10:47.857Z,22.48
2023-03-24T18:13:35.369Z,23.42
2023-03-24T18:16:19.942Z,21.20
2023-03-24T18:19:08.428Z,21.88
2023-03-24T18:21:48.430Z,21.13
2023-03-24T18:24:42.437Z,20.90
2023-03-24T18:27:38.467Z,23.05
2023-03-24T18:30:25.379Z,23.33
2023-03-24T18:33:01.467Z,21.25
2023-03-24T18:35:48.421Z,21.50
2023-03-24T18:38:22.504Z,23.70
2023-03-24T18:41:14.451Z,27.25
2023-03-24T18:43:48.312Z,33.20
2023-03-24T18:46:35.441Z,33.22
2023-03-24T18:49:08.567Z,33.35
2023-03-24T18:51:49.393Z,33.78
2023-03-24T18:54:29.403Z,36.97
2023-03-24T18:57:09.427Z,35.45
2023-03-24T18:59:56.463Z,34.47
2023-03-24T19:02:36.481Z,34.60
2023-03-24T19:05:30.430Z,34.47
2023-03-24T19:08:21.401Z,30.20
2023-03-24T19:10:55.584Z,31.42
2023-03-24T19:13:42.440Z,31.50
2023-03-24T19:16:18.798Z,31.80
2023-03-24T19:19:08.769Z,29.92
2023-03-24T19:21:42.868Z,29.67
2023-03-24T19:24:36.437Z,27.42
2023-03-24T19:27:30.430Z,24.40
2023-03-24T19:30:18.453Z,22.70
2023-03-24T19:32:52.833Z,24.40
2023-03-24T19:35:40.479Z,23.70
2023-03-24T19:38:14.206Z,23.73
2023-03-24T19:41:00.442Z,23.40
2023-03-24T19:43:34.683Z,23.83
2023-03-24T19:46:23.453Z,23.70
2023-03-24T19:48:56.826Z,23.27
2023-03-24T19:51:43.420Z,25.58
2023-03-24T19:54:23.412Z,24.08
2023-03-24T19:57:17.443Z,25.00
2023-03-24T20:00:12.458Z,26.02
2023-03-24T20:02:59.540Z,26.13
2023-03-24T20:05:39.440Z,21.25
2023-03-24T20:08:27.437Z,23.20
2023-03-24T20:11:07.434Z,24.38
2023-03-24T20:14:01.431Z,25.88
2023-03-24T20:16:48.454Z,25.15
2023-03-24T20:19:21.548Z,29.85
2023-03-24T20:22:08.500Z,26.45
2023-03-24T20:24:42.760Z,27.23
2023-03-24T20:27:29.462Z,28.65
2023-03-24T20:30:03.414Z,29.55
2023-03-24T20:32:50.501Z,27.77
2023-03-24T20:35:23.559Z,25.75
2023-03-24T20:38:10.441Z,26.88
2023-03-24T20:40:43.578Z,26.35
2023-03-24T20:43:30.468Z,24.90
2023-03-24T20:46:04.684Z,22.50
2023-03-24T20:48:51.481Z,27.73
2023-03-24T20:51:24.648Z,24.58
2023-03-24T20:54:12.473Z,25.15
2023-03-24T20:56:52.545Z,25.58
2023-03-24T20:59:39.510Z,27.70
2023-03-24T21:02:13.676Z,31.20
2023-03-24T21:05:00.478Z,32.60
2023-03-24T21:07:34.413Z,33.15
2023-03-24T21:10:21.467Z,27.92
2023-03-24T21:13:01.491Z,26.77
2023-03-24T21:15:50.633Z,27.58
2023-03-24T21:18:31.436Z,28.50
2023-03-24T21:21:19.620Z,25.95
2023-03-24T21:24:02.468Z,24.70
2023-03-24T21:26:57.483Z,26.75
2023-03-24T21:29:51.494Z,24.95
2023-03-24T21:32:45.483Z,24.30
2023-03-24T21:35:39.472Z,37.95
2023-03-24T21:38:26.485Z,74.82
2023-03-24T21:41:06.600Z,73.15
2023-03-24T21:43:57.480Z,58.47
2023-03-24T21:46:32.122Z,58.55
2023-03-24T21:49:19.492Z,47.85
2023-03-24T21:51:55.123Z,39.08
2023-03-24T21:54:41.485Z,40.35
2023-03-24T21:57:21.492Z,35.95
2023-03-24T22:00:20.496Z,37.22
2023-03-24T22:03:08.565Z,34.95
2023-03-24T22:05:45.991Z,50.58
2023-03-24T22:08:37.483Z,58.40
2023-03-24T22:11:18.565Z,54.45
2023-03-24T22:14:05.508Z,54.17
2023-03-24T22:16:45.555Z,47.58
2023-03-24T22:19:39.512Z,40.50
2023-03-24T22:22:33.507Z,39.13
2023-03-24T22:25:30.519Z,35.05
2023-03-24T22:28:17.505Z,32.35
2023-03-24T22:30:57.505Z,32.40
2023-03-24T22:33:44.540Z,31.42
2023-03-24T22:36:18.683Z,29.25
2023-03-24T22:39:05.503Z,30.13
2023-03-24T22:41:45.505Z,29.40
2023-03-24T22:44:32.537Z,32.38
2023-03-24T22:47:13.505Z,31.73
2023-03-24T22:50:00.512Z,31.65
2023-03-24T22:52:40.511Z,35.30
2023-03-24T22:55:34.498Z,36.75
2023-03-24T22:58:21.514Z,42.42
2023-03-24T23:00:56.606Z,58.58
2023-03-24T23:03:43.513Z,42.58
2023-03-24T23:06:17.664Z,37.05
2023-03-24T23:09:06.529Z,37.25
2023-03-24T23:11:39.621Z,33.78
2023-03-24T23:14:26.525Z,31.58
2023-03-24T23:16:59.758Z,31.70
2023-03-24T23:19:46.584Z,30.75
2023-03-24T23:22:19.870Z,30.58
2023-03-24T23:25:13.524Z,31.23
2023-03-24T23:28:07.511Z,32.95
2023-03-24T23:30:54.534Z,29.35
2023-03-24T23:33:27.721Z,30.77
2023-03-24T23:36:17.116Z,30.23
2023-03-24T23:38:54.581Z,27.15
2023-03-24T23:41:41.580Z,28.50
2023-03-24T23:44:19.568Z,31.70
2023-03-24T23:47:06.551Z,30.83
2023-03-24T23:49:46.550Z,30.52
2023-03-24T23:52:33.558Z,27.80
2023-03-24T23:55:06.673Z,28.40
2023-03-24T23:57:55.548Z,27.58
